Puisoye, Argentina
Current Conditions -  °F | °C
As of 2:00 AM on Friday 31 Oct 2014 (Local Time) from SARC Reporting Station
Clear Clear  
Wind Chill: 68°   Ceiling: Unl
Heat Index: 68°   Visibility: 6mi
Dew Point: 66°   Wind: 3mph
Humidity: 94%   Direction: 140°SE
Pressure: 29.8"   Gusts: NA
Location:  27.88°S, 57.87°W
Report Text: SARC 310500Z 14003KT CAVOK 20/19 Q1009
Loading
Personal Weather Stations






























Interactive Weather Map New forecast layout! Learn more

10-Day Weather Forecast

Advertisements
Track Severe Weather on mobile